sensor_id;sensor_type;location;lat;lon;timestamp;P1;durP1;ratioP1;P2;durP2;ratioP2
51034;SDS011;37062;52.546;13.230;2023-07-08T00:01:10;5.78;;;4.65;;
51034;SDS011;37062;52.546;13.230;2023-07-08T00:03:40;7.28;;;4.80;;
51034;SDS011;37062;52.546;13.230;2023-07-08T00:06:11;7.07;;;5.20;;
51034;SDS011;37062;52.546;13.230;2023-07-08T00:08:42;5.72;;;4.95;;
51034;SDS011;37062;52.546;13.230;2023-07-08T00:11:11;7.07;;;5.47;;
51034;SDS011;37062;52.546;13.230;2023-07-08T00:13:40;10.07;;;6.05;;
51034;SDS011;37062;52.546;13.230;2023-07-08T00:16:11;6.82;;;5.40;;
51034;SDS011;37062;52.546;13.230;2023-07-08T00:18:40;5.75;;;4.93;;
51034;SDS011;37062;52.546;13.230;2023-07-08T00:21:09;9.32;;;5.40;;
51034;SDS011;37062;52.546;13.230;2023-07-08T00:23:43;5.63;;;5.00;;
51034;SDS011;37062;52.546;13.230;2023-07-08T00:26:13;7.95;;;4.88;;
51034;SDS011;37062;52.546;13.230;2023-07-08T00:28:46;6.60;;;5.25;;
51034;SDS011;37062;52.546;13.230;2023-07-08T00:31:15;6.45;;;5.30;;
51034;SDS011;37062;52.546;13.230;2023-07-08T00:33:50;7.97;;;5.22;;
51034;SDS011;37062;52.546;13.230;2023-07-08T00:36:23;6.07;;;5.32;;
51034;SDS011;37062;52.546;13.230;2023-07-08T00:38:55;6.82;;;5.45;;
51034;SDS011;37062;52.546;13.230;2023-07-08T00:41:24;6.05;;;5.25;;
51034;SDS011;37062;52.546;13.230;2023-07-08T00:43:56;9.00;;;5.50;;
51034;SDS011;37062;52.546;13.230;2023-07-08T00:46:33;7.65;;;5.40;;
51034;SDS011;37062;52.546;13.230;2023-07-08T00:49:13;6.70;;;5.28;;
51034;SDS011;37062;52.546;13.230;2023-07-08T00:51:48;6.78;;;5.10;;
51034;SDS011;37062;52.546;13.230;2023-07-08T00:54:17;6.78;;;5.00;;
51034;SDS011;37062;52.546;13.230;2023-07-08T00:56:47;5.80;;;5.07;;
51034;SDS011;37062;52.546;13.230;2023-07-08T00:59:21;7.10;;;5.07;;
51034;SDS011;37062;52.546;13.230;2023-07-08T01:01:56;6.72;;;5.43;;
51034;SDS011;37062;52.546;13.230;2023-07-08T01:04:30;6.15;;;5.13;;
51034;SDS011;37062;52.546;13.230;2023-07-08T01:07:00;5.93;;;4.80;;
51034;SDS011;37062;52.546;13.230;2023-07-08T01:09:36;6.00;;;5.05;;
51034;SDS011;37062;52.546;13.230;2023-07-08T01:12:10;9.10;;;6.00;;
51034;SDS011;37062;52.546;13.230;2023-07-08T01:14:42;7.43;;;5.18;;
51034;SDS011;37062;52.546;13.230;2023-07-08T01:17:12;9.15;;;5.45;;
51034;SDS011;37062;52.546;13.230;2023-07-08T01:19:41;6.05;;;5.35;;
51034;SDS011;37062;52.546;13.230;2023-07-08T01:22:12;7.25;;;5.40;;
51034;SDS011;37062;52.546;13.230;2023-07-08T01:24:41;12.98;;;5.20;;
51034;SDS011;37062;52.546;13.230;2023-07-08T01:27:14;6.55;;;5.40;;
51034;SDS011;37062;52.546;13.230;2023-07-08T01:29:45;8.40;;;5.32;;
51034;SDS011;37062;52.546;13.230;2023-07-08T01:32:14;8.35;;;5.30;;
51034;SDS011;37062;52.546;13.230;2023-07-08T01:34:46;6.10;;;5.13;;
51034;SDS011;37062;52.546;13.230;2023-07-08T01:37:30;8.52;;;5.13;;
51034;SDS011;37062;52.546;13.230;2023-07-08T01:40:14;6.70;;;5.20;;
51034;SDS011;37062;52.546;13.230;2023-07-08T01:42:55;7.60;;;5.63;;
51034;SDS011;37062;52.546;13.230;2023-07-08T01:45:24;7.55;;;5.40;;
51034;SDS011;37062;52.546;13.230;2023-07-08T01:47:56;5.18;;;4.63;;
51034;SDS011;37062;52.546;13.230;2023-07-08T01:50:26;8.70;;;5.40;;
51034;SDS011;37062;52.546;13.230;2023-07-08T01:52:57;5.50;;;5.00;;
51034;SDS011;37062;52.546;13.230;2023-07-08T01:55:27;5.80;;;5.20;;
51034;SDS011;37062;52.546;13.230;2023-07-08T01:57:56;10.18;;;5.07;;
51034;SDS011;37062;52.546;13.230;2023-07-08T02:00:25;5.35;;;4.70;;
51034;SDS011;37062;52.546;13.230;2023-07-08T02:02:54;5.85;;;5.07;;
51034;SDS011;37062;52.546;13.230;2023-07-08T02:05:22;5.30;;;4.57;;
51034;SDS011;37062;52.546;13.230;2023-07-08T02:07:51;4.75;;;4.35;;
51034;SDS011;37062;52.546;13.230;2023-07-08T02:10:21;7.50;;;4.93;;
51034;SDS011;37062;52.546;13.230;2023-07-08T02:12:51;5.90;;;5.05;;
51034;SDS011;37062;52.546;13.230;2023-07-08T02:15:20;5.63;;;4.80;;
51034;SDS011;37062;52.546;13.230;2023-07-08T02:17:48;6.72;;;5.15;;
51034;SDS011;37062;52.546;13.230;2023-07-08T02:20:17;9.02;;;5.30;;
51034;SDS011;37062;52.546;13.230;2023-07-08T02:22:45;5.60;;;4.57;;
51034;SDS011;37062;52.546;13.230;2023-07-08T02:25:13;9.52;;;5.20;;
51034;SDS011;37062;52.546;13.230;2023-07-08T02:27:43;7.90;;;5.15;;
51034;SDS011;37062;52.546;13.230;2023-07-08T02:30:11;9.00;;;5.47;;
51034;SDS011;37062;52.546;13.230;2023-07-08T02:32:39;5.88;;;4.97;;
51034;SDS011;37062;52.546;13.230;2023-07-08T02:35:15;5.38;;;4.65;;
51034;SDS011;37062;52.546;13.230;2023-07-08T02:37:43;5.45;;;4.38;;
51034;SDS011;37062;52.546;13.230;2023-07-08T02:40:12;6.05;;;4.70;;
51034;SDS011;37062;52.546;13.230;2023-07-08T02:42:40;6.18;;;4.38;;
51034;SDS011;37062;52.546;13.230;2023-07-08T02:45:11;8.43;;;4.63;;
51034;SDS011;37062;52.546;13.230;2023-07-08T02:47:40;4.88;;;4.38;;
51034;SDS011;37062;52.546;13.230;2023-07-08T02:50:09;6.68;;;4.55;;
51034;SDS011;37062;52.546;13.230;2023-07-08T02:52:38;6.50;;;4.10;;
51034;SDS011;37062;52.546;13.230;2023-07-08T02:55:07;7.80;;;4.70;;
51034;SDS011;37062;52.546;13.230;2023-07-08T02:57:36;5.18;;;4.68;;
51034;SDS011;37062;52.546;13.230;2023-07-08T03:00:04;4.75;;;4.25;;
51034;SDS011;37062;52.546;13.230;2023-07-08T03:02:35;7.30;;;4.22;;
51034;SDS011;37062;52.546;13.230;2023-07-08T03:05:03;5.60;;;4.72;;
51034;SDS011;37062;52.546;13.230;2023-07-08T03:07:32;6.97;;;4.97;;
51034;SDS011;37062;52.546;13.230;2023-07-08T03:10:01;5.78;;;4.70;;
51034;SDS011;37062;52.546;13.230;2023-07-08T03:12:29;5.65;;;4.30;;
51034;SDS011;37062;52.546;13.230;2023-07-08T03:14:58;6.95;;;4.60;;
51034;SDS011;37062;52.546;13.230;2023-07-08T03:17:26;5.65;;;4.63;;
51034;SDS011;37062;52.546;13.230;2023-07-08T03:19:55;5.22;;;4.20;;
51034;SDS011;37062;52.546;13.230;2023-07-08T03:22:24;4.93;;;4.43;;
51034;SDS011;37062;52.546;13.230;2023-07-08T03:24:52;6.13;;;4.63;;
51034;SDS011;37062;52.546;13.230;2023-07-08T03:27:21;8.80;;;4.25;;
51034;SDS011;37062;52.546;13.230;2023-07-08T03:29:50;5.28;;;4.43;;
51034;SDS011;37062;52.546;13.230;2023-07-08T03:32:18;6.03;;;4.35;;
51034;SDS011;37062;52.546;13.230;2023-07-08T03:34:46;5.32;;;4.47;;
51034;SDS011;37062;52.546;13.230;2023-07-08T03:37:16;5.60;;;4.72;;
51034;SDS011;37062;52.546;13.230;2023-07-08T03:39:45;6.75;;;4.45;;
51034;SDS011;37062;52.546;13.230;2023-07-08T03:42:13;6.28;;;4.63;;
51034;SDS011;37062;52.546;13.230;2023-07-08T03:44:41;6.05;;;4.15;;
51034;SDS011;37062;52.546;13.230;2023-07-08T03:47:09;5.68;;;4.75;;
51034;SDS011;37062;52.546;13.230;2023-07-08T03:49:38;6.55;;;4.53;;
51034;SDS011;37062;52.546;13.230;2023-07-08T03:52:07;4.95;;;3.60;;
51034;SDS011;37062;52.546;13.230;2023-07-08T03:54:40;5.40;;;4.85;;
51034;SDS011;37062;52.546;13.230;2023-07-08T03:57:09;4.43;;;4.00;;
51034;SDS011;37062;52.546;13.230;2023-07-08T03:59:38;5.32;;;4.30;;
51034;SDS011;37062;52.546;13.230;2023-07-08T04:02:08;5.72;;;4.13;;
51034;SDS011;37062;52.546;13.230;2023-07-08T04:04:38;5.03;;;4.53;;
51034;SDS011;37062;52.546;13.230;2023-07-08T04:07:08;5.00;;;4.07;;
51034;SDS011;37062;52.546;13.230;2023-07-08T04:09:36;5.70;;;4.00;;
51034;SDS011;37062;52.546;13.230;2023-07-08T04:12:07;5.82;;;4.30;;
51034;SDS011;37062;52.546;13.230;2023-07-08T04:14:36;5.88;;;3.90;;
51034;SDS011;37062;52.546;13.230;2023-07-08T04:17:08;3.88;;;3.55;;
51034;SDS011;37062;52.546;13.230;2023-07-08T04:19:38;3.38;;;3.08;;
51034;SDS011;37062;52.546;13.230;2023-07-08T04:22:10;4.15;;;3.75;;
51034;SDS011;37062;52.546;13.230;2023-07-08T04:24:38;8.18;;;3.70;;
51034;SDS011;37062;52.546;13.230;2023-07-08T04:27:09;3.50;;;3.20;;
51034;SDS011;37062;52.546;13.230;2023-07-08T04:29:41;4.07;;;3.67;;
51034;SDS011;37062;52.546;13.230;2023-07-08T04:32:10;5.93;;;3.72;;
51034;SDS011;37062;52.546;13.230;2023-07-08T04:34:38;3.88;;;3.28;;
51034;SDS011;37062;52.546;13.230;2023-07-08T04:37:07;5.13;;;3.47;;
51034;SDS011;37062;52.546;13.230;2023-07-08T04:39:38;5.03;;;3.35;;
51034;SDS011;37062;52.546;13.230;2023-07-08T04:42:06;7.00;;;4.28;;
51034;SDS011;37062;52.546;13.230;2023-07-08T04:44:36;4.40;;;3.60;;
51034;SDS011;37062;52.546;13.230;2023-07-08T04:47:04;3.45;;;3.15;;
51034;SDS011;37062;52.546;13.230;2023-07-08T04:49:33;4.88;;;3.17;;
51034;SDS011;37062;52.546;13.230;2023-07-08T04:52:01;8.98;;;3.70;;
51034;SDS011;37062;52.546;13.230;2023-07-08T04:54:29;3.78;;;3.40;;
51034;SDS011;37062;52.546;13.230;2023-07-08T04:56:57;4.38;;;3.50;;
51034;SDS011;37062;52.546;13.230;2023-07-08T04:59:27;4.20;;;3.63;;
51034;SDS011;37062;52.546;13.230;2023-07-08T05:02:00;4.00;;;3.03;;
51034;SDS011;37062;52.546;13.230;2023-07-08T05:04:29;3.85;;;3.30;;
51034;SDS011;37062;52.546;13.230;2023-07-08T05:06:59;4.65;;;3.47;;
51034;SDS011;37062;52.546;13.230;2023-07-08T05:09:27;4.25;;;3.45;;
51034;SDS011;37062;52.546;13.230;2023-07-08T05:11:55;4.28;;;3.67;;
51034;SDS011;37062;52.546;13.230;2023-07-08T05:14:24;4.63;;;3.60;;
51034;SDS011;37062;52.546;13.230;2023-07-08T05:16:53;3.30;;;3.00;;
51034;SDS011;37062;52.546;13.230;2023-07-08T05:19:22;4.85;;;3.50;;
51034;SDS011;37062;52.546;13.230;2023-07-08T05:21:50;7.18;;;3.78;;
51034;SDS011;37062;52.546;13.230;2023-07-08T05:24:19;3.88;;;3.05;;
51034;SDS011;37062;52.546;13.230;2023-07-08T05:26:48;3.85;;;3.40;;
51034;SDS011;37062;52.546;13.230;2023-07-08T05:29:16;4.90;;;3.80;;
51034;SDS011;37062;52.546;13.230;2023-07-08T05:31:44;4.00;;;3.60;;
51034;SDS011;37062;52.546;13.230;2023-07-08T05:34:15;4.90;;;3.50;;
51034;SDS011;37062;52.546;13.230;2023-07-08T05:36:43;8.88;;;3.25;;
51034;SDS011;37062;52.546;13.230;2023-07-08T05:39:11;3.25;;;2.95;;
51034;SDS011;37062;52.546;13.230;2023-07-08T05:41:40;4.15;;;3.15;;
51034;SDS011;37062;52.546;13.230;2023-07-08T05:44:08;3.65;;;2.83;;
51034;SDS011;37062;52.546;13.230;2023-07-08T05:46:36;4.30;;;3.30;;
51034;SDS011;37062;52.546;13.230;2023-07-08T05:49:05;3.95;;;3.33;;
51034;SDS011;37062;52.546;13.230;2023-07-08T05:51:36;3.58;;;3.20;;
51034;SDS011;37062;52.546;13.230;2023-07-08T05:54:04;4.95;;;3.28;;
51034;SDS011;37062;52.546;13.230;2023-07-08T05:56:32;6.50;;;3.20;;
51034;SDS011;37062;52.546;13.230;2023-07-08T05:59:01;4.22;;;3.30;;
51034;SDS011;37062;52.546;13.230;2023-07-08T06:01:29;3.45;;;2.63;;
51034;SDS011;37062;52.546;13.230;2023-07-08T06:03:58;4.47;;;3.03;;
51034;SDS011;37062;52.546;13.230;2023-07-08T06:06:27;3.90;;;2.85;;
51034;SDS011;37062;52.546;13.230;2023-07-08T06:08:57;3.28;;;2.72;;
51034;SDS011;37062;52.546;13.230;2023-07-08T06:11:26;2.90;;;2.58;;
51034;SDS011;37062;52.546;13.230;2023-07-08T06:13:58;4.95;;;3.10;;
51034;SDS011;37062;52.546;13.230;2023-07-08T06:16:27;3.47;;;3.03;;
51034;SDS011;37062;52.546;13.230;2023-07-08T06:19:06;4.00;;;2.80;;
51034;SDS011;37062;52.546;13.230;2023-07-08T06:21:34;5.43;;;3.08;;
51034;SDS011;37062;52.546;13.230;2023-07-08T06:24:04;3.75;;;2.67;;
51034;SDS011;37062;52.546;13.230;2023-07-08T06:26:33;4.78;;;2.83;;
51034;SDS011;37062;52.546;13.230;2023-07-08T06:29:01;4.53;;;2.80;;
51034;SDS011;37062;52.546;13.230;2023-07-08T06:31:30;3.00;;;2.55;;
51034;SDS011;37062;52.546;13.230;2023-07-08T06:33:59;5.18;;;3.00;;
51034;SDS011;37062;52.546;13.230;2023-07-08T06:36:27;3.60;;;2.88;;
51034;SDS011;37062;52.546;13.230;2023-07-08T06:38:55;3.15;;;2.85;;
51034;SDS011;37062;52.546;13.230;2023-07-08T06:41:25;4.05;;;2.78;;
51034;SDS011;37062;52.546;13.230;2023-07-08T06:43:53;7.13;;;3.25;;
51034;SDS011;37062;52.546;13.230;2023-07-08T06:46:26;3.83;;;2.90;;
51034;SDS011;37062;52.546;13.230;2023-07-08T06:48:54;4.35;;;2.67;;
51034;SDS011;37062;52.546;13.230;2023-07-08T06:51:22;6.78;;;2.90;;
51034;SDS011;37062;52.546;13.230;2023-07-08T06:53:50;3.85;;;2.85;;
51034;SDS011;37062;52.546;13.230;2023-07-08T06:56:19;4.35;;;2.90;;
51034;SDS011;37062;52.546;13.230;2023-07-08T06:58:49;7.63;;;3.13;;
51034;SDS011;37062;52.546;13.230;2023-07-08T07:01:17;4.68;;;2.95;;
51034;SDS011;37062;52.546;13.230;2023-07-08T07:03:45;5.25;;;3.20;;
51034;SDS011;37062;52.546;13.230;2023-07-08T07:06:13;4.68;;;3.20;;
51034;SDS011;37062;52.546;13.230;2023-07-08T07:08:42;4.50;;;3.13;;
51034;SDS011;37062;52.546;13.230;2023-07-08T07:11:10;3.58;;;2.80;;
51034;SDS011;37062;52.546;13.230;2023-07-08T07:13:38;3.63;;;2.90;;
51034;SDS011;37062;52.546;13.230;2023-07-08T07:16:08;3.75;;;2.67;;
51034;SDS011;37062;52.546;13.230;2023-07-08T07:18:36;3.85;;;2.90;;
51034;SDS011;37062;52.546;13.230;2023-07-08T07:21:05;3.72;;;2.83;;
51034;SDS011;37062;52.546;13.230;2023-07-08T07:23:33;3.35;;;2.95;;
51034;SDS011;37062;52.546;13.230;2023-07-08T07:26:01;4.05;;;3.30;;
51034;SDS011;37062;52.546;13.230;2023-07-08T07:28:31;5.95;;;3.30;;
51034;SDS011;37062;52.546;13.230;2023-07-08T07:30:59;5.78;;;3.10;;
51034;SDS011;37062;52.546;13.230;2023-07-08T07:33:29;4.30;;;3.28;;
51034;SDS011;37062;52.546;13.230;2023-07-08T07:35:58;3.90;;;2.83;;
51034;SDS011;37062;52.546;13.230;2023-07-08T07:38:27;6.63;;;2.95;;
51034;SDS011;37062;52.546;13.230;2023-07-08T07:40:55;4.97;;;3.22;;
51034;SDS011;37062;52.546;13.230;2023-07-08T07:43:27;4.70;;;2.88;;
51034;SDS011;37062;52.546;13.230;2023-07-08T07:45:56;4.47;;;3.00;;
51034;SDS011;37062;52.546;13.230;2023-07-08T07:48:24;3.17;;;2.67;;
51034;SDS011;37062;52.546;13.230;2023-07-08T07:50:54;3.38;;;2.75;;
51034;SDS011;37062;52.546;13.230;2023-07-08T07:53:22;4.63;;;3.10;;
51034;SDS011;37062;52.546;13.230;2023-07-08T07:55:55;4.93;;;2.90;;
51034;SDS011;37062;52.546;13.230;2023-07-08T07:58:24;4.28;;;2.75;;
51034;SDS011;37062;52.546;13.230;2023-07-08T08:00:53;2.83;;;2.58;;
51034;SDS011;37062;52.546;13.230;2023-07-08T08:03:21;3.33;;;2.60;;
51034;SDS011;37062;52.546;13.230;2023-07-08T08:05:50;4.15;;;2.83;;
51034;SDS011;37062;52.546;13.230;2023-07-08T08:08:20;4.05;;;3.08;;
51034;SDS011;37062;52.546;13.230;2023-07-08T08:10:49;5.65;;;2.80;;
51034;SDS011;37062;52.546;13.230;2023-07-08T08:13:17;3.80;;;2.95;;
51034;SDS011;37062;52.546;13.230;2023-07-08T08:15:45;3.45;;;2.80;;
51034;SDS011;37062;52.546;13.230;2023-07-08T08:18:13;3.28;;;2.97;;
51034;SDS011;37062;52.546;13.230;2023-07-08T08:20:42;5.55;;;3.10;;
51034;SDS011;37062;52.546;13.230;2023-07-08T08:23:10;5.88;;;2.85;;
51034;SDS011;37062;52.546;13.230;2023-07-08T08:25:39;5.70;;;2.80;;
51034;SDS011;37062;52.546;13.230;2023-07-08T08:28:08;4.03;;;2.88;;
51034;SDS011;37062;52.546;13.230;2023-07-08T08:30:36;3.38;;;2.90;;
51034;SDS011;37062;52.546;13.230;2023-07-08T08:33:04;5.28;;;3.03;;
51034;SDS011;37062;52.546;13.230;2023-07-08T08:35:32;3.30;;;2.70;;
51034;SDS011;37062;52.546;13.230;2023-07-08T08:38:03;4.50;;;2.90;;
51034;SDS011;37062;52.546;13.230;2023-07-08T08:40:31;4.63;;;2.90;;
51034;SDS011;37062;52.546;13.230;2023-07-08T08:43:02;6.35;;;2.80;;
51034;SDS011;37062;52.546;13.230;2023-07-08T08:45:34;5.15;;;2.90;;
51034;SDS011;37062;52.546;13.230;2023-07-08T08:48:10;7.03;;;3.05;;
51034;SDS011;37062;52.546;13.230;2023-07-08T08:50:43;5.22;;;2.25;;
51034;SDS011;37062;52.546;13.230;2023-07-08T08:53:17;5.05;;;2.90;;
51034;SDS011;37062;52.546;13.230;2023-07-08T08:55:50;4.20;;;2.63;;
51034;SDS011;37062;52.546;13.230;2023-07-08T08:58:27;3.63;;;2.40;;
51034;SDS011;37062;52.546;13.230;2023-07-08T09:01:06;4.88;;;2.50;;
51034;SDS011;37062;52.546;13.230;2023-07-08T09:03:44;2.50;;;2.30;;
51034;SDS011;37062;52.546;13.230;2023-07-08T09:06:18;2.58;;;2.30;;
51034;SDS011;37062;52.546;13.230;2023-07-08T09:08:49;4.50;;;2.38;;
51034;SDS011;37062;52.546;13.230;2023-07-08T09:11:21;4.55;;;2.30;;
51034;SDS011;37062;52.546;13.230;2023-07-08T09:14:06;3.50;;;2.13;;
51034;SDS011;37062;52.546;13.230;2023-07-08T09:16:43;2.85;;;2.47;;
51034;SDS011;37062;52.546;13.230;2023-07-08T09:19:21;2.53;;;2.05;;
51034;SDS011;37062;52.546;13.230;2023-07-08T09:21:53;4.38;;;2.28;;
51034;SDS011;37062;52.546;13.230;2023-07-08T09:24:31;3.33;;;2.40;;
51034;SDS011;37062;52.546;13.230;2023-07-08T09:27:03;4.20;;;2.20;;
51034;SDS011;37062;52.546;13.230;2023-07-08T09:29:33;3.30;;;2.15;;
51034;SDS011;37062;52.546;13.230;2023-07-08T09:32:11;2.53;;;1.73;;
51034;SDS011;37062;52.546;13.230;2023-07-08T09:34:45;4.07;;;1.90;;
51034;SDS011;37062;52.546;13.230;2023-07-08T09:37:22;2.88;;;1.83;;
51034;SDS011;37062;52.546;13.230;2023-07-08T09:39:52;3.05;;;2.30;;
51034;SDS011;37062;52.546;13.230;2023-07-08T09:42:22;2.65;;;2.10;;
51034;SDS011;37062;52.546;13.230;2023-07-08T09:44:56;3.67;;;2.13;;
51034;SDS011;37062;52.546;13.230;2023-07-08T09:47:27;2.30;;;2.10;;
51034;SDS011;37062;52.546;13.230;2023-07-08T09:50:00;5.18;;;2.05;;
51034;SDS011;37062;52.546;13.230;2023-07-08T09:52:30;6.93;;;2.33;;
51034;SDS011;37062;52.546;13.230;2023-07-08T09:54:58;7.05;;;2.22;;
51034;SDS011;37062;52.546;13.230;2023-07-08T09:57:28;5.25;;;2.00;;
51034;SDS011;37062;52.546;13.230;2023-07-08T10:00:00;3.28;;;2.05;;
51034;SDS011;37062;52.546;13.230;2023-07-08T10:02:32;2.40;;;2.10;;
51034;SDS011;37062;52.546;13.230;2023-07-08T10:05:11;2.65;;;2.03;;
51034;SDS011;37062;52.546;13.230;2023-07-08T10:07:42;2.58;;;1.90;;
51034;SDS011;37062;52.546;13.230;2023-07-08T10:10:13;3.25;;;2.17;;
51034;SDS011;37062;52.546;13.230;2023-07-08T10:12:47;2.28;;;1.90;;
51034;SDS011;37062;52.546;13.230;2023-07-08T10:15:24;2.30;;;2.00;;
51034;SDS011;37062;52.546;13.230;2023-07-08T10:17:57;2.10;;;1.90;;
51034;SDS011;37062;52.546;13.230;2023-07-08T10:20:28;3.80;;;2.15;;
51034;SDS011;37062;52.546;13.230;2023-07-08T10:23:06;2.28;;;1.88;;
51034;SDS011;37062;52.546;13.230;2023-07-08T10:25:44;3.75;;;2.08;;
51034;SDS011;37062;52.546;13.230;2023-07-08T10:28:23;4.22;;;2.13;;
51034;SDS011;37062;52.546;13.230;2023-07-08T10:31:01;2.47;;;2.10;;
51034;SDS011;37062;52.546;13.230;2023-07-08T10:33:45;6.30;;;2.28;;
51034;SDS011;37062;52.546;13.230;2023-07-08T10:36:24;2.80;;;2.08;;
51034;SDS011;37062;52.546;13.230;2023-07-08T10:39:11;2.67;;;2.00;;
51034;SDS011;37062;52.546;13.230;2023-07-08T10:41:54;2.92;;;2.10;;
51034;SDS011;37062;52.546;13.230;2023-07-08T10:44:30;3.50;;;2.20;;
51034;SDS011;37062;52.546;13.230;2023-07-08T10:47:10;3.28;;;2.00;;
51034;SDS011;37062;52.546;13.230;2023-07-08T10:49:54;3.03;;;2.50;;
51034;SDS011;37062;52.546;13.230;2023-07-08T10:52:35;3.90;;;2.25;;
51034;SDS011;37062;52.546;13.230;2023-07-08T10:55:18;3.03;;;2.17;;
51034;SDS011;37062;52.546;13.230;2023-07-08T10:58:00;4.80;;;2.15;;
51034;SDS011;37062;52.546;13.230;2023-07-08T11:00:54;2.20;;;1.98;;
51034;SDS011;37062;52.546;13.230;2023-07-08T11:03:46;5.68;;;2.40;;
51034;SDS011;37062;52.546;13.230;2023-07-08T11:06:26;3.38;;;2.17;;
51034;SDS011;37062;52.546;13.230;2023-07-08T11:09:02;2.53;;;2.20;;
51034;SDS011;37062;52.546;13.230;2023-07-08T11:11:34;2.58;;;2.20;;
51034;SDS011;37062;52.546;13.230;2023-07-08T11:14:09;2.28;;;2.08;;
51034;SDS011;37062;52.546;13.230;2023-07-08T11:16:41;5.80;;;2.20;;
51034;SDS011;37062;52.546;13.230;2023-07-08T11:19:17;4.18;;;2.13;;
51034;SDS011;37062;52.546;13.230;2023-07-08T11:21:50;2.60;;;1.80;;
51034;SDS011;37062;52.546;13.230;2023-07-08T11:24:22;5.97;;;2.58;;
51034;SDS011;37062;52.546;13.230;2023-07-08T11:26:57;3.03;;;2.72;;
51034;SDS011;37062;52.546;13.230;2023-07-08T11:29:32;3.00;;;2.70;;
51034;SDS011;37062;52.546;13.230;2023-07-08T11:32:05;3.47;;;2.33;;
51034;SDS011;37062;52.546;13.230;2023-07-08T11:34:37;2.97;;;2.53;;
51034;SDS011;37062;52.546;13.230;2023-07-08T11:37:07;3.35;;;2.80;;
51034;SDS011;37062;52.546;13.230;2023-07-08T11:39:38;3.83;;;2.47;;
51034;SDS011;37062;52.546;13.230;2023-07-08T11:42:12;4.18;;;2.30;;
51034;SDS011;37062;52.546;13.230;2023-07-08T11:44:46;2.72;;;2.50;;
51034;SDS011;37062;52.546;13.230;2023-07-08T11:47:19;4.45;;;2.33;;
51034;SDS011;37062;52.546;13.230;2023-07-08T11:49:54;2.83;;;2.35;;
51034;SDS011;37062;52.546;13.230;2023-07-08T11:52:23;3.17;;;2.42;;
51034;SDS011;37062;52.546;13.230;2023-07-08T11:54:56;2.92;;;2.40;;
51034;SDS011;37062;52.546;13.230;2023-07-08T11:57:28;2.50;;;2.30;;
51034;SDS011;37062;52.546;13.230;2023-07-08T12:02:51;3.03;;;2.60;;
51034;SDS011;37062;52.546;13.230;2023-07-08T12:05:30;4.13;;;2.78;;
51034;SDS011;37062;52.546;13.230;2023-07-08T12:08:00;2.55;;;2.25;;
51034;SDS011;37062;52.546;13.230;2023-07-08T12:10:34;3.78;;;2.53;;
51034;SDS011;37062;52.546;13.230;2023-07-08T12:13:05;6.60;;;2.85;;
51034;SDS011;37062;52.546;13.230;2023-07-08T12:15:40;7.63;;;3.10;;
51034;SDS011;37062;52.546;13.230;2023-07-08T12:18:11;4.60;;;2.60;;
51034;SDS011;37062;52.546;13.230;2023-07-08T12:20:44;4.45;;;3.03;;
51034;SDS011;37062;52.546;13.230;2023-07-08T12:23:17;2.67;;;2.38;;
51034;SDS011;37062;52.546;13.230;2023-07-08T12:25:49;4.13;;;2.70;;
51034;SDS011;37062;52.546;13.230;2023-07-08T12:28:19;5.00;;;2.60;;
51034;SDS011;37062;52.546;13.230;2023-07-08T12:30:48;3.00;;;2.47;;
51034;SDS011;37062;52.546;13.230;2023-07-08T12:33:18;3.17;;;2.47;;
51034;SDS011;37062;52.546;13.230;2023-07-08T12:35:50;3.05;;;2.53;;
51034;SDS011;37062;52.546;13.230;2023-07-08T12:38:20;4.50;;;2.60;;
51034;SDS011;37062;52.546;13.230;2023-07-08T12:40:54;3.70;;;2.53;;
51034;SDS011;37062;52.546;13.230;2023-07-08T12:43:24;6.43;;;2.95;;
51034;SDS011;37062;52.546;13.230;2023-07-08T12:45:53;3.22;;;2.70;;
51034;SDS011;37062;52.546;13.230;2023-07-08T12:48:21;3.38;;;2.80;;
51034;SDS011;37062;52.546;13.230;2023-07-08T12:50:51;4.15;;;2.75;;
51034;SDS011;37062;52.546;13.230;2023-07-08T12:53:19;3.50;;;2.97;;
51034;SDS011;37062;52.546;13.230;2023-07-08T12:55:47;4.25;;;2.65;;
51034;SDS011;37062;52.546;13.230;2023-07-08T12:58:21;4.07;;;2.72;;
51034;SDS011;37062;52.546;13.230;2023-07-08T13:00:54;3.10;;;2.50;;
51034;SDS011;37062;52.546;13.230;2023-07-08T13:03:24;2.63;;;2.42;;
51034;SDS011;37062;52.546;13.230;2023-07-08T13:05:57;2.80;;;2.60;;
51034;SDS011;37062;52.546;13.230;2023-07-08T13:08:29;3.70;;;2.72;;
51034;SDS011;37062;52.546;13.230;2023-07-08T13:11:01;3.17;;;2.53;;
51034;SDS011;37062;52.546;13.230;2023-07-08T13:13:31;3.65;;;2.83;;
51034;SDS011;37062;52.546;13.230;2023-07-08T13:16:03;2.90;;;2.65;;
51034;SDS011;37062;52.546;13.230;2023-07-08T13:18:33;2.92;;;2.53;;
51034;SDS011;37062;52.546;13.230;2023-07-08T13:21:04;5.18;;;2.63;;
51034;SDS011;37062;52.546;13.230;2023-07-08T13:23:34;3.58;;;2.88;;
51034;SDS011;37062;52.546;13.230;2023-07-08T13:26:11;2.95;;;2.65;;
51034;SDS011;37062;52.546;13.230;2023-07-08T13:28:41;3.85;;;2.80;;
51034;SDS011;37062;52.546;13.230;2023-07-08T13:31:15;2.60;;;2.40;;
51034;SDS011;37062;52.546;13.230;2023-07-08T13:33:50;4.43;;;2.55;;
51034;SDS011;37062;52.546;13.230;2023-07-08T13:36:22;3.10;;;2.80;;
51034;SDS011;37062;52.546;13.230;2023-07-08T13:38:51;7.45;;;2.92;;
51034;SDS011;37062;52.546;13.230;2023-07-08T13:41:21;4.00;;;2.92;;
51034;SDS011;37062;52.546;13.230;2023-07-08T13:43:50;3.30;;;2.70;;
51034;SDS011;37062;52.546;13.230;2023-07-08T13:46:45;4.60;;;3.20;;
51034;SDS011;37062;52.546;13.230;2023-07-08T13:49:20;4.25;;;2.80;;
51034;SDS011;37062;52.546;13.230;2023-07-08T13:52:03;3.15;;;2.55;;
51034;SDS011;37062;52.546;13.230;2023-07-08T13:54:34;2.70;;;2.50;;
51034;SDS011;37062;52.546;13.230;2023-07-08T13:57:08;4.90;;;2.85;;
51034;SDS011;37062;52.546;13.230;2023-07-08T13:59:38;4.60;;;2.78;;
51034;SDS011;37062;52.546;13.230;2023-07-08T14:02:13;3.00;;;2.50;;
51034;SDS011;37062;52.546;13.230;2023-07-08T14:04:43;3.20;;;2.50;;
51034;SDS011;37062;52.546;13.230;2023-07-08T14:07:15;3.05;;;2.78;;
51034;SDS011;37062;52.546;13.230;2023-07-08T14:09:44;3.85;;;2.67;;
51034;SDS011;37062;52.546;13.230;2023-07-08T14:12:12;3.60;;;2.65;;
51034;SDS011;37062;52.546;13.230;2023-07-08T14:14:41;4.28;;;2.78;;
51034;SDS011;37062;52.546;13.230;2023-07-08T14:17:09;3.17;;;2.47;;
51034;SDS011;37062;52.546;13.230;2023-07-08T14:19:41;5.43;;;3.05;;
51034;SDS011;37062;52.546;13.230;2023-07-08T14:22:24;4.28;;;2.67;;
51034;SDS011;37062;52.546;13.230;2023-07-08T14:24:53;3.28;;;2.50;;
51034;SDS011;37062;52.546;13.230;2023-07-08T14:27:22;4.25;;;2.83;;
51034;SDS011;37062;52.546;13.230;2023-07-08T14:29:50;2.80;;;2.50;;
51034;SDS011;37062;52.546;13.230;2023-07-08T14:32:20;4.35;;;2.65;;
51034;SDS011;37062;52.546;13.230;2023-07-08T14:34:51;4.53;;;2.60;;
51034;SDS011;37062;52.546;13.230;2023-07-08T14:37:23;3.67;;;2.88;;
51034;SDS011;37062;52.546;13.230;2023-07-08T14:39:52;3.92;;;2.60;;
51034;SDS011;37062;52.546;13.230;2023-07-08T14:42:20;3.58;;;2.67;;
51034;SDS011;37062;52.546;13.230;2023-07-08T14:44:48;2.67;;;2.30;;
51034;SDS011;37062;52.546;13.230;2023-07-08T14:47:19;6.80;;;2.85;;
51034;SDS011;37062;52.546;13.230;2023-07-08T14:49:48;4.93;;;2.60;;
51034;SDS011;37062;52.546;13.230;2023-07-08T14:52:16;2.90;;;2.60;;
51034;SDS011;37062;52.546;13.230;2023-07-08T14:54:46;4.00;;;2.75;;
51034;SDS011;37062;52.546;13.230;2023-07-08T14:57:15;3.88;;;2.40;;
51034;SDS011;37062;52.546;13.230;2023-07-08T14:59:44;2.75;;;2.50;;